sensor_id;sensor_type;location;lat;lon;timestamp;P1;durP1;ratioP1;P2;durP2;ratioP2
50213;SDS011;36103;54.176;12.070;2023-04-25T00:00:29;6.13;;;3.53;;
50213;SDS011;36103;54.176;12.070;2023-04-25T00:01:31;5.83;;;3.50;;
50213;SDS011;36103;54.176;12.070;2023-04-25T00:02:32;6.03;;;3.37;;
50213;SDS011;36103;54.176;12.070;2023-04-25T00:03:34;6.47;;;3.50;;
50213;SDS011;36103;54.176;12.070;2023-04-25T00:04:35;5.13;;;3.10;;
50213;SDS011;36103;54.176;12.070;2023-04-25T00:05:37;4.83;;;2.93;;
50213;SDS011;36103;54.176;12.070;2023-04-25T00:06:39;7.33;;;3.90;;
50213;SDS011;36103;54.176;12.070;2023-04-25T00:07:40;7.23;;;3.20;;
50213;SDS011;36103;54.176;12.070;2023-04-25T00:08:42;5.50;;;3.00;;
50213;SDS011;36103;54.176;12.070;2023-04-25T00:09:44;7.03;;;3.07;;
50213;SDS011;36103;54.176;12.070;2023-04-25T00:10:45;4.77;;;3.17;;
50213;SDS011;36103;54.176;12.070;2023-04-25T00:11:46;7.30;;;3.37;;
50213;SDS011;36103;54.176;12.070;2023-04-25T00:12:47;6.00;;;3.30;;
50213;SDS011;36103;54.176;12.070;2023-04-25T00:13:48;3.87;;;2.80;;
50213;SDS011;36103;54.176;12.070;2023-04-25T00:14:49;5.70;;;3.43;;
50213;SDS011;36103;54.176;12.070;2023-04-25T00:15:52;6.83;;;3.37;;
50213;SDS011;36103;54.176;12.070;2023-04-25T00:16:53;6.67;;;3.37;;
50213;SDS011;36103;54.176;12.070;2023-04-25T00:17:54;5.63;;;3.13;;
50213;SDS011;36103;54.176;12.070;2023-04-25T00:18:55;5.93;;;3.10;;
50213;SDS011;36103;54.176;12.070;2023-04-25T00:19:56;6.40;;;3.40;;
50213;SDS011;36103;54.176;12.070;2023-04-25T00:20:58;4.70;;;2.63;;
50213;SDS011;36103;54.176;12.070;2023-04-25T00:22:00;5.67;;;2.87;;
50213;SDS011;36103;54.176;12.070;2023-04-25T00:23:00;6.37;;;3.37;;
50213;SDS011;36103;54.176;12.070;2023-04-25T00:24:02;4.97;;;3.20;;
50213;SDS011;36103;54.176;12.070;2023-04-25T00:25:04;5.30;;;2.67;;
50213;SDS011;36103;54.176;12.070;2023-04-25T00:26:06;6.20;;;3.13;;
50213;SDS011;36103;54.176;12.070;2023-04-25T00:27:06;5.60;;;3.27;;
50213;SDS011;36103;54.176;12.070;2023-04-25T00:28:08;5.33;;;3.03;;
50213;SDS011;36103;54.176;12.070;2023-04-25T00:29:08;5.37;;;3.27;;
50213;SDS011;36103;54.176;12.070;2023-04-25T00:30:10;6.23;;;2.67;;
50213;SDS011;36103;54.176;12.070;2023-04-25T00:31:14;5.23;;;2.63;;
50213;SDS011;36103;54.176;12.070;2023-04-25T00:32:15;5.03;;;2.93;;
50213;SDS011;36103;54.176;12.070;2023-04-25T00:33:16;4.10;;;2.83;;
50213;SDS011;36103;54.176;12.070;2023-04-25T00:34:16;5.43;;;2.47;;
50213;SDS011;36103;54.176;12.070;2023-04-25T00:35:18;5.27;;;2.63;;
50213;SDS011;36103;54.176;12.070;2023-04-25T00:36:18;4.53;;;2.73;;
50213;SDS011;36103;54.176;12.070;2023-04-25T00:37:20;6.47;;;3.23;;
50213;SDS011;36103;54.176;12.070;2023-04-25T00:38:21;4.80;;;2.73;;
50213;SDS011;36103;54.176;12.070;2023-04-25T00:39:22;5.17;;;2.60;;
50213;SDS011;36103;54.176;12.070;2023-04-25T00:40:23;5.93;;;2.53;;
50213;SDS011;36103;54.176;12.070;2023-04-25T00:41:25;4.43;;;2.60;;
50213;SDS011;36103;54.176;12.070;2023-04-25T00:42:26;4.23;;;2.87;;
50213;SDS011;36103;54.176;12.070;2023-04-25T00:43:28;4.30;;;2.70;;
50213;SDS011;36103;54.176;12.070;2023-04-25T00:44:29;4.37;;;2.77;;
50213;SDS011;36103;54.176;12.070;2023-04-25T00:45:32;4.17;;;2.67;;
50213;SDS011;36103;54.176;12.070;2023-04-25T00:46:35;4.50;;;2.67;;
50213;SDS011;36103;54.176;12.070;2023-04-25T00:47:37;5.50;;;2.70;;
50213;SDS011;36103;54.176;12.070;2023-04-25T00:48:38;5.60;;;2.90;;
50213;SDS011;36103;54.176;12.070;2023-04-25T00:49:39;5.17;;;2.97;;
50213;SDS011;36103;54.176;12.070;2023-04-25T00:50:40;6.93;;;3.17;;
50213;SDS011;36103;54.176;12.070;2023-04-25T00:51:42;4.20;;;2.40;;
50213;SDS011;36103;54.176;12.070;2023-04-25T00:52:44;4.97;;;2.63;;
50213;SDS011;36103;54.176;12.070;2023-04-25T00:53:46;4.03;;;2.70;;
50213;SDS011;36103;54.176;12.070;2023-04-25T00:54:46;5.47;;;2.87;;
50213;SDS011;36103;54.176;12.070;2023-04-25T00:55:48;4.80;;;2.77;;
50213;SDS011;36103;54.176;12.070;2023-04-25T00:56:50;5.23;;;2.60;;
50213;SDS011;36103;54.176;12.070;2023-04-25T00:57:52;4.77;;;2.57;;
50213;SDS011;36103;54.176;12.070;2023-04-25T00:58:53;4.83;;;2.17;;
50213;SDS011;36103;54.176;12.070;2023-04-25T00:59:56;4.23;;;2.50;;
50213;SDS011;36103;54.176;12.070;2023-04-25T01:00:57;4.40;;;2.90;;
50213;SDS011;36103;54.176;12.070;2023-04-25T01:01:59;3.63;;;2.43;;
50213;SDS011;36103;54.176;12.070;2023-04-25T01:03:00;3.90;;;2.33;;
50213;SDS011;36103;54.176;12.070;2023-04-25T01:04:04;4.63;;;2.30;;
50213;SDS011;36103;54.176;12.070;2023-04-25T01:05:04;2.80;;;2.10;;
50213;SDS011;36103;54.176;12.070;2023-04-25T01:06:06;6.73;;;2.93;;
50213;SDS011;36103;54.176;12.070;2023-04-25T01:07:07;4.43;;;2.67;;
50213;SDS011;36103;54.176;12.070;2023-04-25T01:08:10;2.70;;;2.10;;
50213;SDS011;36103;54.176;12.070;2023-04-25T01:09:10;4.47;;;2.27;;
50213;SDS011;36103;54.176;12.070;2023-04-25T01:10:12;4.53;;;2.33;;
50213;SDS011;36103;54.176;12.070;2023-04-25T01:11:13;3.57;;;2.07;;
50213;SDS011;36103;54.176;12.070;2023-04-25T01:12:14;3.20;;;2.10;;
50213;SDS011;36103;54.176;12.070;2023-04-25T01:13:15;3.33;;;2.13;;
50213;SDS011;36103;54.176;12.070;2023-04-25T01:14:17;5.00;;;2.60;;
50213;SDS011;36103;54.176;12.070;2023-04-25T01:15:19;4.00;;;2.23;;
50213;SDS011;36103;54.176;12.070;2023-04-25T01:16:20;4.93;;;2.40;;
50213;SDS011;36103;54.176;12.070;2023-04-25T01:17:25;3.63;;;2.57;;
50213;SDS011;36103;54.176;12.070;2023-04-25T01:18:25;2.87;;;1.97;;
50213;SDS011;36103;54.176;12.070;2023-04-25T01:19:27;4.50;;;2.03;;
50213;SDS011;36103;54.176;12.070;2023-04-25T01:20:28;3.40;;;2.17;;
50213;SDS011;36103;54.176;12.070;2023-04-25T01:21:32;5.57;;;2.57;;
50213;SDS011;36103;54.176;12.070;2023-04-25T01:22:32;3.53;;;1.80;;
50213;SDS011;36103;54.176;12.070;2023-04-25T01:23:34;2.57;;;1.80;;
50213;SDS011;36103;54.176;12.070;2023-04-25T01:24:35;3.00;;;2.00;;
50213;SDS011;36103;54.176;12.070;2023-04-25T01:25:37;3.30;;;2.20;;
50213;SDS011;36103;54.176;12.070;2023-04-25T01:26:37;3.30;;;2.00;;
50213;SDS011;36103;54.176;12.070;2023-04-25T01:27:40;4.87;;;2.23;;
50213;SDS011;36103;54.176;12.070;2023-04-25T01:28:41;3.37;;;1.90;;
50213;SDS011;36103;54.176;12.070;2023-04-25T01:29:44;4.90;;;2.60;;
50213;SDS011;36103;54.176;12.070;2023-04-25T01:30:44;2.70;;;2.03;;
50213;SDS011;36103;54.176;12.070;2023-04-25T01:31:46;3.43;;;2.10;;
50213;SDS011;36103;54.176;12.070;2023-04-25T01:32:47;3.77;;;2.17;;
50213;SDS011;36103;54.176;12.070;2023-04-25T01:33:49;2.90;;;1.93;;
50213;SDS011;36103;54.176;12.070;2023-04-25T01:34:49;2.40;;;2.10;;
50213;SDS011;36103;54.176;12.070;2023-04-25T01:35:53;4.50;;;2.03;;
50213;SDS011;36103;54.176;12.070;2023-04-25T01:36:55;4.57;;;2.60;;
50213;SDS011;36103;54.176;12.070;2023-04-25T01:37:57;2.93;;;2.03;;
50213;SDS011;36103;54.176;12.070;2023-04-25T01:38:58;3.90;;;2.33;;
50213;SDS011;36103;54.176;12.070;2023-04-25T01:39:59;2.73;;;2.30;;
50213;SDS011;36103;54.176;12.070;2023-04-25T01:41:00;4.23;;;1.93;;
50213;SDS011;36103;54.176;12.070;2023-04-25T01:42:02;2.67;;;1.93;;
50213;SDS011;36103;54.176;12.070;2023-04-25T01:43:03;3.87;;;2.20;;
50213;SDS011;36103;54.176;12.070;2023-04-25T01:44:04;3.00;;;2.03;;
50213;SDS011;36103;54.176;12.070;2023-04-25T01:45:05;3.37;;;1.97;;
50213;SDS011;36103;54.176;12.070;2023-04-25T01:46:07;3.13;;;1.77;;
50213;SDS011;36103;54.176;12.070;2023-04-25T01:47:08;3.20;;;2.13;;
50213;SDS011;36103;54.176;12.070;2023-04-25T01:48:10;3.13;;;2.00;;
50213;SDS011;36103;54.176;12.070;2023-04-25T01:49:12;3.97;;;2.20;;
50213;SDS011;36103;54.176;12.070;2023-04-25T01:50:15;2.70;;;1.80;;
50213;SDS011;36103;54.176;12.070;2023-04-25T01:51:16;2.80;;;1.90;;
50213;SDS011;36103;54.176;12.070;2023-04-25T01:52:19;3.23;;;2.33;;
50213;SDS011;36103;54.176;12.070;2023-04-25T01:53:20;3.50;;;2.10;;
50213;SDS011;36103;54.176;12.070;2023-04-25T01:54:22;3.57;;;2.10;;
50213;SDS011;36103;54.176;12.070;2023-04-25T01:55:23;4.87;;;2.40;;
50213;SDS011;36103;54.176;12.070;2023-04-25T01:56:36;2.87;;;2.10;;
50213;SDS011;36103;54.176;12.070;2023-04-25T01:57:37;3.17;;;2.07;;
50213;SDS011;36103;54.176;12.070;2023-04-25T01:58:39;3.73;;;2.07;;
50213;SDS011;36103;54.176;12.070;2023-04-25T01:59:49;2.63;;;2.03;;
50213;SDS011;36103;54.176;12.070;2023-04-25T02:01:11;2.03;;;1.70;;
50213;SDS011;36103;54.176;12.070;2023-04-25T02:02:18;2.27;;;1.70;;
50213;SDS011;36103;54.176;12.070;2023-04-25T02:03:19;2.63;;;1.70;;
50213;SDS011;36103;54.176;12.070;2023-04-25T02:04:20;3.50;;;1.90;;
50213;SDS011;36103;54.176;12.070;2023-04-25T02:05:22;2.93;;;1.87;;
50213;SDS011;36103;54.176;12.070;2023-04-25T02:06:22;3.97;;;2.30;;
50213;SDS011;36103;54.176;12.070;2023-04-25T02:07:27;3.43;;;1.90;;
50213;SDS011;36103;54.176;12.070;2023-04-25T02:08:27;3.00;;;1.90;;
50213;SDS011;36103;54.176;12.070;2023-04-25T02:09:30;2.13;;;1.73;;
50213;SDS011;36103;54.176;12.070;2023-04-25T02:10:31;4.27;;;2.30;;
50213;SDS011;36103;54.176;12.070;2023-04-25T02:11:48;3.73;;;2.00;;
50213;SDS011;36103;54.176;12.070;2023-04-25T02:12:59;3.27;;;1.97;;
50213;SDS011;36103;54.176;12.070;2023-04-25T02:14:23;4.13;;;2.10;;
50213;SDS011;36103;54.176;12.070;2023-04-25T02:15:48;2.97;;;1.93;;
50213;SDS011;36103;54.176;12.070;2023-04-25T02:16:52;2.50;;;1.73;;
50213;SDS011;36103;54.176;12.070;2023-04-25T02:17:52;4.43;;;1.93;;
50213;SDS011;36103;54.176;12.070;2023-04-25T02:18:54;3.20;;;1.77;;
50213;SDS011;36103;54.176;12.070;2023-04-25T02:19:54;3.33;;;1.80;;
50213;SDS011;36103;54.176;12.070;2023-04-25T02:20:57;2.93;;;2.13;;
50213;SDS011;36103;54.176;12.070;2023-04-25T02:21:58;3.73;;;1.90;;
50213;SDS011;36103;54.176;12.070;2023-04-25T02:23:01;2.17;;;1.57;;
50213;SDS011;36103;54.176;12.070;2023-04-25T02:24:02;3.47;;;1.90;;
50213;SDS011;36103;54.176;12.070;2023-04-25T02:25:04;4.27;;;2.23;;
50213;SDS011;36103;54.176;12.070;2023-04-25T02:26:06;3.77;;;2.00;;
50213;SDS011;36103;54.176;12.070;2023-04-25T02:27:07;2.10;;;1.80;;
50213;SDS011;36103;54.176;12.070;2023-04-25T02:28:09;2.13;;;1.70;;
50213;SDS011;36103;54.176;12.070;2023-04-25T02:29:11;3.20;;;2.00;;
50213;SDS011;36103;54.176;12.070;2023-04-25T02:30:11;4.00;;;1.87;;
50213;SDS011;36103;54.176;12.070;2023-04-25T02:31:13;2.73;;;1.70;;
50213;SDS011;36103;54.176;12.070;2023-04-25T02:32:14;3.77;;;1.83;;
50213;SDS011;36103;54.176;12.070;2023-04-25T02:33:15;3.60;;;2.07;;
50213;SDS011;36103;54.176;12.070;2023-04-25T02:34:17;2.33;;;1.70;;
50213;SDS011;36103;54.176;12.070;2023-04-25T02:35:18;4.10;;;2.37;;
50213;SDS011;36103;54.176;12.070;2023-04-25T02:36:19;2.97;;;1.77;;
50213;SDS011;36103;54.176;12.070;2023-04-25T02:37:22;4.03;;;1.83;;
50213;SDS011;36103;54.176;12.070;2023-04-25T02:38:24;3.37;;;1.93;;
50213;SDS011;36103;54.176;12.070;2023-04-25T02:39:26;3.27;;;1.83;;
50213;SDS011;36103;54.176;12.070;2023-04-25T02:40:27;2.10;;;1.80;;
50213;SDS011;36103;54.176;12.070;2023-04-25T02:41:28;3.40;;;1.67;;
50213;SDS011;36103;54.176;12.070;2023-04-25T02:42:29;3.60;;;2.17;;
50213;SDS011;36103;54.176;12.070;2023-04-25T02:43:31;3.40;;;2.00;;
50213;SDS011;36103;54.176;12.070;2023-04-25T02:44:31;2.87;;;1.80;;
50213;SDS011;36103;54.176;12.070;2023-04-25T02:45:33;1.70;;;1.20;;
50213;SDS011;36103;54.176;12.070;2023-04-25T02:46:33;3.07;;;1.90;;
50213;SDS011;36103;54.176;12.070;2023-04-25T02:47:35;3.17;;;2.00;;
50213;SDS011;36103;54.176;12.070;2023-04-25T02:48:35;3.33;;;1.60;;
50213;SDS011;36103;54.176;12.070;2023-04-25T02:49:37;3.33;;;1.80;;
50213;SDS011;36103;54.176;12.070;2023-04-25T02:50:37;3.33;;;1.90;;
50213;SDS011;36103;54.176;12.070;2023-04-25T02:51:39;3.40;;;1.73;;
50213;SDS011;36103;54.176;12.070;2023-04-25T02:52:39;2.63;;;1.83;;
50213;SDS011;36103;54.176;12.070;2023-04-25T02:53:50;2.80;;;1.90;;
50213;SDS011;36103;54.176;12.070;2023-04-25T02:54:50;3.13;;;1.70;;
50213;SDS011;36103;54.176;12.070;2023-04-25T02:55:52;2.60;;;1.83;;
50213;SDS011;36103;54.176;12.070;2023-04-25T02:56:53;3.30;;;1.80;;
50213;SDS011;36103;54.176;12.070;2023-04-25T02:57:59;2.77;;;1.80;;
50213;SDS011;36103;54.176;12.070;2023-04-25T02:59:13;2.70;;;1.60;;
50213;SDS011;36103;54.176;12.070;2023-04-25T03:00:14;4.03;;;1.90;;
50213;SDS011;36103;54.176;12.070;2023-04-25T03:01:15;3.27;;;1.73;;
50213;SDS011;36103;54.176;12.070;2023-04-25T03:02:16;2.33;;;1.80;;
50213;SDS011;36103;54.176;12.070;2023-04-25T03:03:17;3.00;;;1.87;;
50213;SDS011;36103;54.176;12.070;2023-04-25T03:04:21;3.40;;;2.03;;
50213;SDS011;36103;54.176;12.070;2023-04-25T03:05:23;2.50;;;1.80;;
50213;SDS011;36103;54.176;12.070;2023-04-25T03:06:25;2.63;;;1.90;;
50213;SDS011;36103;54.176;12.070;2023-04-25T03:07:26;2.00;;;1.50;;
50213;SDS011;36103;54.176;12.070;2023-04-25T03:08:27;2.83;;;1.70;;
50213;SDS011;36103;54.176;12.070;2023-04-25T03:09:34;3.77;;;2.00;;
50213;SDS011;36103;54.176;12.070;2023-04-25T03:10:36;2.70;;;1.80;;
50213;SDS011;36103;54.176;12.070;2023-04-25T03:11:40;2.97;;;1.87;;
50213;SDS011;36103;54.176;12.070;2023-04-25T03:12:41;3.37;;;2.10;;
50213;SDS011;36103;54.176;12.070;2023-04-25T03:13:42;2.73;;;1.77;;
50213;SDS011;36103;54.176;12.070;2023-04-25T03:14:44;3.57;;;2.07;;
50213;SDS011;36103;54.176;12.070;2023-04-25T03:15:45;4.03;;;2.00;;
50213;SDS011;36103;54.176;12.070;2023-04-25T03:16:46;3.17;;;1.80;;
50213;SDS011;36103;54.176;12.070;2023-04-25T03:17:46;3.10;;;1.60;;
50213;SDS011;36103;54.176;12.070;2023-04-25T03:18:48;2.37;;;1.43;;
50213;SDS011;36103;54.176;12.070;2023-04-25T03:19:50;2.43;;;1.60;;
50213;SDS011;36103;54.176;12.070;2023-04-25T03:20:52;3.77;;;2.07;;
50213;SDS011;36103;54.176;12.070;2023-04-25T03:21:52;2.83;;;1.80;;
50213;SDS011;36103;54.176;12.070;2023-04-25T03:22:54;1.70;;;1.43;;
50213;SDS011;36103;54.176;12.070;2023-04-25T03:23:54;2.33;;;1.80;;
50213;SDS011;36103;54.176;12.070;2023-04-25T03:24:57;2.47;;;1.60;;
50213;SDS011;36103;54.176;12.070;2023-04-25T03:25:58;3.50;;;2.07;;
50213;SDS011;36103;54.176;12.070;2023-04-25T03:26:59;1.93;;;1.27;;
50213;SDS011;36103;54.176;12.070;2023-04-25T03:28:00;2.07;;;1.80;;
50213;SDS011;36103;54.176;12.070;2023-04-25T03:29:02;1.67;;;1.50;;
50213;SDS011;36103;54.176;12.070;2023-04-25T03:30:03;2.50;;;1.60;;
50213;SDS011;36103;54.176;12.070;2023-04-25T03:31:06;1.83;;;1.50;;
50213;SDS011;36103;54.176;12.070;2023-04-25T03:32:07;4.47;;;1.80;;
50213;SDS011;36103;54.176;12.070;2023-04-25T03:33:08;3.00;;;1.60;;
50213;SDS011;36103;54.176;12.070;2023-04-25T03:34:09;2.73;;;1.83;;
50213;SDS011;36103;54.176;12.070;2023-04-25T03:35:10;2.33;;;1.40;;
50213;SDS011;36103;54.176;12.070;2023-04-25T03:36:11;2.83;;;1.90;;
50213;SDS011;36103;54.176;12.070;2023-04-25T03:37:13;2.60;;;1.67;;
50213;SDS011;36103;54.176;12.070;2023-04-25T03:38:14;3.50;;;1.67;;
50213;SDS011;36103;54.176;12.070;2023-04-25T03:39:15;2.47;;;1.50;;
50213;SDS011;36103;54.176;12.070;2023-04-25T03:40:22;2.17;;;1.70;;
50213;SDS011;36103;54.176;12.070;2023-04-25T03:41:41;3.53;;;1.73;;
50213;SDS011;36103;54.176;12.070;2023-04-25T03:42:46;2.53;;;1.80;;
50213;SDS011;36103;54.176;12.070;2023-04-25T03:43:47;2.70;;;2.03;;
50213;SDS011;36103;54.176;12.070;2023-04-25T03:44:51;2.83;;;1.70;;
50213;SDS011;36103;54.176;12.070;2023-04-25T03:45:51;2.13;;;1.53;;
50213;SDS011;36103;54.176;12.070;2023-04-25T03:46:55;1.87;;;1.47;;
50213;SDS011;36103;54.176;12.070;2023-04-25T03:47:58;3.57;;;1.83;;
50213;SDS011;36103;54.176;12.070;2023-04-25T03:49:01;2.93;;;1.90;;
50213;SDS011;36103;54.176;12.070;2023-04-25T03:50:21;4.33;;;1.87;;
50213;SDS011;36103;54.176;12.070;2023-04-25T03:51:22;2.37;;;1.70;;
50213;SDS011;36103;54.176;12.070;2023-04-25T03:52:23;2.60;;;1.73;;
50213;SDS011;36103;54.176;12.070;2023-04-25T03:53:25;3.40;;;1.60;;
50213;SDS011;36103;54.176;12.070;2023-04-25T03:54:45;3.23;;;1.90;;
50213;SDS011;36103;54.176;12.070;2023-04-25T03:55:51;3.03;;;1.60;;
50213;SDS011;36103;54.176;12.070;2023-04-25T03:56:52;2.43;;;1.83;;
50213;SDS011;36103;54.176;12.070;2023-04-25T03:57:55;2.87;;;1.90;;
50213;SDS011;36103;54.176;12.070;2023-04-25T03:58:58;3.17;;;1.60;;
50213;SDS011;36103;54.176;12.070;2023-04-25T04:00:01;3.40;;;2.20;;
50213;SDS011;36103;54.176;12.070;2023-04-25T04:01:13;2.40;;;1.60;;
50213;SDS011;36103;54.176;12.070;2023-04-25T04:02:15;2.73;;;1.87;;
50213;SDS011;36103;54.176;12.070;2023-04-25T04:03:16;2.50;;;1.57;;
50213;SDS011;36103;54.176;12.070;2023-04-25T04:04:17;3.50;;;1.73;;
50213;SDS011;36103;54.176;12.070;2023-04-25T04:05:18;3.30;;;1.83;;
50213;SDS011;36103;54.176;12.070;2023-04-25T04:06:27;3.67;;;1.83;;
50213;SDS011;36103;54.176;12.070;2023-04-25T04:07:36;2.40;;;1.80;;
50213;SDS011;36103;54.176;12.070;2023-04-25T04:08:40;2.83;;;1.40;;
50213;SDS011;36103;54.176;12.070;2023-04-25T04:09:42;2.33;;;1.30;;
50213;SDS011;36103;54.176;12.070;2023-04-25T04:10:49;2.43;;;1.80;;
50213;SDS011;36103;54.176;12.070;2023-04-25T04:11:51;3.77;;;1.87;;
50213;SDS011;36103;54.176;12.070;2023-04-25T04:12:52;2.90;;;1.70;;
50213;SDS011;36103;54.176;12.070;2023-04-25T04:13:53;2.73;;;1.80;;
50213;SDS011;36103;54.176;12.070;2023-04-25T04:14:54;3.60;;;2.00;;
50213;SDS011;36103;54.176;12.070;2023-04-25T04:15:55;3.10;;;1.70;;
50213;SDS011;36103;54.176;12.070;2023-04-25T04:16:57;4.23;;;1.53;;
50213;SDS011;36103;54.176;12.070;2023-04-25T04:17:58;3.70;;;1.80;;
50213;SDS011;36103;54.176;12.070;2023-04-25T04:19:02;3.57;;;2.00;;
50213;SDS011;36103;54.176;12.070;2023-04-25T04:20:03;2.43;;;1.43;;
50213;SDS011;36103;54.176;12.070;2023-04-25T04:21:06;2.57;;;1.40;;
50213;SDS011;36103;54.176;12.070;2023-04-25T04:22:09;3.47;;;1.80;;
50213;SDS011;36103;54.176;12.070;2023-04-25T04:23:12;1.73;;;1.40;;
50213;SDS011;36103;54.176;12.070;2023-04-25T04:24:12;2.67;;;1.73;;
50213;SDS011;36103;54.176;12.070;2023-04-25T04:25:30;2.37;;;1.53;;
50213;SDS011;36103;54.176;12.070;2023-04-25T04:26:47;3.27;;;1.73;;
50213;SDS011;36103;54.176;12.070;2023-04-25T04:28:08;3.07;;;1.50;;
50213;SDS011;36103;54.176;12.070;2023-04-25T04:29:20;4.13;;;1.57;;
50213;SDS011;36103;54.176;12.070;2023-04-25T04:30:34;3.77;;;1.67;;
50213;SDS011;36103;54.176;12.070;2023-04-25T04:31:40;5.37;;;1.80;;
50213;SDS011;36103;54.176;12.070;2023-04-25T04:32:40;4.07;;;2.20;;
50213;SDS011;36103;54.176;12.070;2023-04-25T04:33:43;3.30;;;1.70;;
50213;SDS011;36103;54.176;12.070;2023-04-25T04:34:44;2.37;;;1.70;;
50213;SDS011;36103;54.176;12.070;2023-04-25T04:35:50;1.93;;;1.70;;
50213;SDS011;36103;54.176;12.070;2023-04-25T04:36:52;2.53;;;1.80;;
50213;SDS011;36103;54.176;12.070;2023-04-25T04:37:53;2.90;;;1.80;;
50213;SDS011;36103;54.176;12.070;2023-04-25T04:38:56;2.63;;;1.50;;
50213;SDS011;36103;54.176;12.070;2023-04-25T04:40:09;2.60;;;1.63;;
50213;SDS011;36103;54.176;12.070;2023-04-25T04:41:16;3.60;;;1.93;;
50213;SDS011;36103;54.176;12.070;2023-04-25T04:42:28;1.70;;;1.60;;
50213;SDS011;36103;54.176;12.070;2023-04-25T04:43:57;3.87;;;1.63;;
50213;SDS011;36103;54.176;12.070;2023-04-25T04:45:17;2.70;;;1.60;;
50213;SDS011;36103;54.176;12.070;2023-04-25T04:46:42;3.60;;;1.67;;
50213;SDS011;36103;54.176;12.070;2023-04-25T04:48:07;2.37;;;1.60;;
50213;SDS011;36103;54.176;12.070;2023-04-25T04:49:30;2.57;;;1.77;;
50213;SDS011;36103;54.176;12.070;2023-04-25T04:50:52;2.23;;;1.77;;
50213;SDS011;36103;54.176;12.070;2023-04-25T04:52:22;2.87;;;1.60;;
50213;SDS011;36103;54.176;12.070;2023-04-25T04:53:37;2.50;;;1.60;;
50213;SDS011;36103;54.176;12.070;2023-04-25T04:54:47;2.73;;;1.77;;
50213;SDS011;36103;54.176;12.070;2023-04-25T04:56:06;2.30;;;1.67;;
50213;SDS011;36103;54.176;12.070;2023-04-25T04:57:24;2.43;;;1.87;;
50213;SDS011;36103;54.176;12.070;2023-04-25T04:58:52;3.17;;;1.60;;
50213;SDS011;36103;54.176;12.070;2023-04-25T05:00:14;2.33;;;1.63;;
50213;SDS011;36103;54.176;12.070;2023-04-25T05:01:29;2.10;;;1.60;;
50213;SDS011;36103;54.176;12.070;2023-04-25T05:02:36;3.60;;;1.70;;
50213;SDS011;36103;54.176;12.070;2023-04-25T05:03:57;2.17;;;1.50;;
50213;SDS011;36103;54.176;12.070;2023-04-25T05:05:19;2.97;;;1.60;;
50213;SDS011;36103;54.176;12.070;2023-04-25T05:06:46;1.93;;;1.50;;
50213;SDS011;36103;54.176;12.070;2023-04-25T05:08:00;3.97;;;2.20;;
50213;SDS011;36103;54.176;12.070;2023-04-25T05:09:26;2.50;;;1.43;;
50213;SDS011;36103;54.176;12.070;2023-04-25T05:10:48;2.00;;;1.40;;
50213;SDS011;36103;54.176;12.070;2023-04-25T05:12:02;1.93;;;1.40;;
50213;SDS011;36103;54.176;12.070;2023-04-25T05:13:26;1.70;;;1.40;;
50213;SDS011;36103;54.176;12.070;2023-04-25T05:14:42;3.70;;;1.87;;
50213;SDS011;36103;54.176;12.070;2023-04-25T05:16:04;1.77;;;1.63;;
50213;SDS011;36103;54.176;12.070;2023-04-25T05:17:20;2.53;;;1.60;;
50213;SDS011;36103;54.176;12.070;2023-04-25T05:18:34;2.83;;;1.40;;
50213;SDS011;36103;54.176;12.070;2023-04-25T05:19:53;2.30;;;1.53;;
50213;SDS011;36103;54.176;12.070;2023-04-25T05:21:17;2.40;;;1.90;;
50213;SDS011;36103;54.176;12.070;2023-04-25T05:22:35;3.90;;;1.63;;
50213;SDS011;36103;54.176;12.070;2023-04-25T05:24:03;2.47;;;1.70;;
50213;SDS011;36103;54.176;12.070;2023-04-25T05:25:28;2.10;;;1.27;;
50213;SDS011;36103;54.176;12.070;2023-04-25T05:26:39;2.63;;;1.27;;
50213;SDS011;36103;54.176;12.070;2023-04-25T05:27:56;3.77;;;1.57;;
50213;SDS011;36103;54.176;12.070;2023-04-25T05:29:34;1.40;;;1.20;;
50213;SDS011;36103;54.176;12.070;2023-04-25T05:30:57;2.10;;;1.53;;
50213;SDS011;36103;54.176;12.070;2023-04-25T05:32:16;1.50;;;1.30;;
50213;SDS011;36103;54.176;12.070;2023-04-25T05:33:20;2.27;;;1.30;;
50213;SDS011;36103;54.176;12.070;2023-04-25T05:34:20;3.17;;;1.40;;
50213;SDS011;36103;54.176;12.070;2023-04-25T05:35:29;4.83;;;1.90;;
50213;SDS011;36103;54.176;12.070;2023-04-25T05:36:30;2.10;;;1.30;;
50213;SDS011;36103;54.176;12.070;2023-04-25T05:37:32;2.87;;;1.40;;
50213;SDS011;36103;54.176;12.070;2023-04-25T05:38:43;3.00;;;1.40;;
50213;SDS011;36103;54.176;12.070;2023-04-25T05:39:53;3.00;;;1.47;;
50213;SDS011;36103;54.176;12.070;2023-04-25T05:41:27;2.90;;;1.40;;
50213;SDS011;36103;54.176;12.070;2023-04-25T05:42:33;2.43;;;1.10;;
50213;SDS011;36103;54.176;12.070;2023-04-25T05:43:52;2.00;;;1.30;;
50213;SDS011;36103;54.176;12.070;2023-04-25T05:45:12;2.43;;;1.43;;
50213;SDS011;36103;54.176;12.070;2023-04-25T05:46:23;2.73;;;1.47;;
50213;SDS011;36103;54.176;12.070;2023-04-25T05:47:39;4.10;;;1.50;;
50213;SDS011;36103;54.176;12.070;2023-04-25T05:48:47;3.23;;;1.43;;
50213;SDS011;36103;54.176;12.070;2023-04-25T05:50:11;2.03;;;1.40;;
50213;SDS011;36103;54.176;12.070;2023-04-25T05:51:31;2.00;;;1.10;;
50213;SDS011;36103;54.176;12.070;2023-04-25T05:52:51;3.03;;;1.47;;
50213;SDS011;36103;54.176;12.070;2023-04-25T05:54:12;2.20;;;1.60;;
50213;SDS011;36103;54.176;12.070;2023-04-25T05:55:13;3.37;;;1.20;;
50213;SDS011;36103;54.176;12.070;2023-04-25T05:56:16;3.60;;;1.50;;
50213;SDS011;36103;54.176;12.070;2023-04-25T05:57:20;1.70;;;1.20;;
50213;SDS011;36103;54.176;12.070;2023-04-25T05:58:22;2.10;;;1.40;;
50213;SDS011;36103;54.176;12.070;2023-04-25T05:59:22;1.97;;;1.17;;
50213;SDS011;36103;54.176;12.070;2023-04-25T06:00:24;1.57;;;1.10;;
50213;SDS011;36103;54.176;12.070;2023-04-25T06:01:25;3.23;;;1.77;;
50213;SDS011;36103;54.176;12.070;2023-04-25T06:02:27;3.43;;;1.40;;
50213;SDS011;36103;54.176;12.070;2023-04-25T06:03:29;3.43;;;1.50;;
50213;SDS011;36103;54.176;12.070;2023-04-25T06:04:32;2.67;;;1.57;;
50213;SDS011;36103;54.176;12.070;2023-04-25T06:05:34;1.60;;;1.03;;
50213;SDS011;36103;54.176;12.070;2023-04-25T06:06:35;1.97;;;1.17;;
50213;SDS011;36103;54.176;12.070;2023-04-25T06:07:36;3.17;;;1.23;;
50213;SDS011;36103;54.176;12.070;2023-04-25T06:08:38;2.73;;;1.27;;
50213;SDS011;36103;54.176;12.070;2023-04-25T06:09:38;5.27;;;1.73;;
50213;SDS011;36103;54.176;12.070;2023-04-25T06:10:40;2.00;;;1.20;;
50213;SDS011;36103;54.176;12.070;2023-04-25T06:11:41;3.60;;;1.53;;
50213;SDS011;36103;54.176;12.070;2023-04-25T06:12:43;4.57;;;1.57;;
50213;SDS011;36103;54.176;12.070;2023-04-25T06:13:44;4.70;;;1.37;;
50213;SDS011;36103;54.176;12.070;2023-04-25T06:14:46;2.83;;;1.40;;
50213;SDS011;36103;54.176;12.070;2023-04-25T06:15:46;3.47;;;1.33;;
50213;SDS011;36103;54.176;12.070;2023-04-25T06:16:48;2.03;;;1.23;;
50213;SDS011;36103;54.176;12.070;2023-04-25T06:17:48;2.83;;;1.10;;
50213;SDS011;36103;54.176;12.070;2023-04-25T06:18:52;2.37;;;1.27;;
50213;SDS011;36103;54.176;12.070;2023-04-25T06:19:53;4.10;;;1.50;;
50213;SDS011;36103;54.176;12.070;2023-04-25T06:20:54;2.43;;;1.40;;
50213;SDS011;36103;54.176;12.070;2023-04-25T06:21:56;3.17;;;1.37;;
50213;SDS011;36103;54.176;12.070;2023-04-25T06:22:57;2.23;;;1.33;;
50213;SDS011;36103;54.176;12.070;2023-04-25T06:24:19;2.53;;;1.50;;
50213;SDS011;36103;54.176;12.070;2023-04-25T06:25:20;2.10;;;1.20;;
50213;SDS011;36103;54.176;12.070;2023-04-25T06:26:21;2.30;;;1.23;;